createdAt,value
2023-05-21T00:00:25.701Z,63.10
2023-05-21T00:02:52.115Z,62.46
2023-05-21T00:05:18.601Z,63.37
2023-05-21T00:07:44.968Z,63.51
2023-05-21T00:10:11.368Z,63.41
2023-05-21T00:12:37.752Z,63.71
2023-05-21T00:15:04.132Z,64.19
2023-05-21T00:17:30.545Z,63.43
2023-05-21T00:19:57.007Z,63.87
2023-05-21T00:22:23.397Z,63.58
2023-05-21T00:24:49.748Z,63.58
2023-05-21T00:27:16.128Z,63.52
2023-05-21T00:29:44.178Z,64.33
2023-05-21T00:32:10.872Z,63.75
2023-05-21T00:34:37.357Z,64.02
2023-05-21T00:37:03.725Z,64.30
2023-05-21T00:39:30.080Z,64.37
2023-05-21T00:41:56.447Z,64.15
2023-05-21T00:44:22.817Z,63.67
2023-05-21T00:46:49.210Z,63.82
2023-05-21T00:49:15.691Z,63.63
2023-05-21T00:51:42.084Z,63.08
2023-05-21T00:54:08.475Z,63.70
2023-05-21T00:56:34.878Z,63.91
2023-05-21T00:59:01.235Z,64.19
2023-05-21T01:01:27.651Z,64.44
2023-05-21T01:03:54.121Z,64.48
2023-05-21T01:06:20.490Z,64.07
2023-05-21T01:08:46.856Z,63.29
2023-05-21T01:11:13.238Z,62.98
2023-05-21T01:13:39.617Z,63.75
2023-05-21T01:16:05.978Z,64.26
2023-05-21T01:18:32.388Z,63.48
2023-05-21T01:20:58.789Z,63.86
2023-05-21T01:23:25.218Z,63.50
2023-05-21T01:25:51.605Z,63.68
2023-05-21T01:28:17.965Z,63.67
2023-05-21T01:30:44.346Z,64.29
2023-05-21T01:33:10.869Z,64.27
2023-05-21T01:35:37.510Z,64.55
2023-05-21T01:38:04.069Z,64.06
2023-05-21T01:40:30.429Z,64.03
2023-05-21T01:42:56.794Z,63.84
2023-05-21T01:45:23.150Z,64.11
2023-05-21T01:47:49.552Z,64.07
2023-05-21T01:50:16.048Z,64.15
2023-05-21T01:52:42.469Z,64.41
2023-05-21T01:55:08.827Z,64.47
2023-05-21T01:57:35.213Z,64.59
2023-05-21T02:00:01.648Z,64.71
2023-05-21T02:02:28.083Z,64.54
2023-05-21T02:04:54.454Z,64.66
2023-05-21T02:07:20.810Z,64.30
2023-05-21T02:09:47.178Z,64.51
2023-05-21T02:12:13.554Z,64.45
2023-05-21T02:14:39.932Z,64.65
2023-05-21T02:17:06.338Z,64.72
2023-05-21T02:19:32.748Z,64.68
2023-05-21T02:21:59.190Z,64.27
2023-05-21T02:24:25.554Z,64.62
2023-05-21T02:26:51.932Z,64.40
2023-05-21T02:29:18.800Z,64.76
2023-05-21T02:31:45.185Z,65.63
2023-05-21T02:34:11.609Z,65.20
2023-05-21T02:36:38.043Z,64.86
2023-05-21T02:39:04.418Z,64.91
2023-05-21T02:41:30.782Z,64.71
2023-05-21T02:43:57.141Z,64.62
2023-05-21T02:46:23.556Z,64.48
2023-05-21T02:48:49.985Z,64.21
2023-05-21T02:51:16.404Z,63.77
2023-05-21T02:53:42.821Z,64.27
2023-05-21T02:56:09.197Z,64.32
2023-05-21T02:58:35.557Z,63.67
2023-05-21T03:01:01.951Z,63.49
2023-05-21T03:03:28.556Z,63.97
2023-05-21T03:05:55.035Z,63.88
2023-05-21T03:08:21.420Z,64.87
2023-05-21T03:10:47.779Z,64.42
2023-05-21T03:13:14.183Z,63.81
2023-05-21T03:15:40.587Z,63.93
2023-05-21T03:18:07.017Z,63.88
2023-05-21T03:20:33.426Z,63.98
2023-05-21T03:22:59.824Z,63.55
2023-05-21T03:25:26.197Z,64.10
2023-05-21T03:27:52.571Z,63.41
2023-05-21T03:30:18.962Z,64.00
2023-05-21T03:32:45.375Z,64.48
2023-05-21T03:35:11.792Z,64.07
2023-05-21T03:37:38.203Z,64.38
2023-05-21T03:40:04.577Z,64.13
2023-05-21T03:42:30.995Z,63.98
2023-05-21T03:44:57.363Z,64.37
2023-05-21T03:47:23.778Z,64.26
2023-05-21T03:49:50.181Z,65.00
2023-05-21T03:52:16.551Z,65.11
2023-05-21T03:54:42.908Z,65.05
2023-05-21T03:57:09.293Z,64.68
2023-05-21T03:59:35.672Z,65.14
2023-05-21T04:02:02.048Z,65.45
2023-05-21T04:04:28.456Z,65.25
2023-05-21T04:06:54.818Z,65.68
2023-05-21T04:09:21.189Z,65.50
2023-05-21T04:11:47.571Z,65.62
2023-05-21T04:14:13.957Z,65.61
2023-05-21T04:16:40.365Z,65.95
2023-05-21T04:19:06.754Z,66.00
2023-05-21T04:21:33.148Z,65.85
2023-05-21T04:23:59.668Z,66.06
2023-05-21T04:26:26.083Z,65.72
2023-05-21T04:28:52.437Z,65.27
2023-05-21T04:31:18.886Z,65.80
2023-05-21T04:33:45.311Z,65.66
2023-05-21T04:36:11.703Z,65.96
2023-05-21T04:38:38.085Z,65.66
2023-05-21T04:41:04.479Z,65.87
2023-05-21T04:43:30.922Z,66.51
2023-05-21T04:45:57.354Z,66.51
2023-05-21T04:48:23.732Z,66.64
2023-05-21T04:50:50.107Z,66.40
2023-05-21T04:53:16.527Z,66.49
2023-05-21T04:55:42.907Z,66.29
2023-05-21T04:58:09.271Z,66.69
2023-05-21T05:00:35.669Z,66.98
2023-05-21T05:03:02.121Z,66.77
2023-05-21T05:05:28.542Z,66.33
2023-05-21T05:07:54.940Z,67.04
2023-05-21T05:10:21.295Z,67.13
2023-05-21T05:12:47.665Z,67.40
2023-05-21T05:15:14.049Z,67.23
2023-05-21T05:17:40.463Z,66.99
2023-05-21T05:20:06.906Z,66.89
2023-05-21T05:22:33.277Z,66.56
2023-05-21T05:24:59.674Z,66.76
2023-05-21T05:27:26.059Z,67.24
2023-05-21T05:29:52.420Z,66.64
2023-05-21T05:32:18.842Z,66.74
2023-05-21T05:34:45.230Z,67.06
2023-05-21T05:37:11.596Z,66.86
2023-05-21T05:39:37.970Z,66.90
2023-05-21T05:42:04.347Z,67.17
2023-05-21T05:44:30.709Z,67.06
2023-05-21T05:46:57.061Z,66.55
2023-05-21T05:49:23.425Z,67.11
2023-05-21T05:51:49.777Z,66.65
2023-05-21T05:54:16.145Z,66.86
2023-05-21T05:56:42.519Z,66.34
2023-05-21T05:59:08.916Z,66.62
2023-05-21T06:01:35.299Z,66.18
2023-05-21T06:04:01.665Z,66.20
2023-05-21T06:06:28.070Z,66.45
2023-05-21T06:08:54.437Z,66.95
2023-05-21T06:11:20.852Z,67.06
2023-05-21T06:13:47.267Z,67.36
2023-05-21T06:16:13.736Z,67.03
2023-05-21T06:18:40.145Z,66.67
2023-05-21T06:21:09.814Z,66.95
2023-05-21T06:23:36.246Z,66.62
2023-05-21T06:26:02.619Z,66.06
2023-05-21T06:28:28.991Z,66.25
2023-05-21T06:30:55.380Z,66.25
2023-05-21T06:33:21.804Z,66.38
2023-05-21T06:35:48.223Z,66.19
2023-05-21T06:38:14.607Z,66.06
2023-05-21T06:40:42.167Z,65.25
2023-05-21T06:43:08.532Z,65.38
2023-05-21T06:45:35.073Z,65.81
2023-05-21T06:48:01.715Z,65.46
2023-05-21T06:50:28.172Z,65.87
2023-05-21T06:52:54.574Z,65.66
2023-05-21T06:55:20.943Z,65.30
2023-05-21T06:57:47.332Z,64.71
2023-05-21T07:00:13.694Z,64.91
2023-05-21T07:02:40.127Z,64.66
2023-05-21T07:05:06.541Z,65.08
2023-05-21T07:07:32.902Z,65.18
2023-05-21T07:09:59.264Z,65.21
2023-05-21T07:12:25.642Z,65.16
2023-05-21T07:14:52.012Z,65.76
2023-05-21T07:17:18.366Z,64.44
2023-05-21T07:19:44.744Z,64.17
2023-05-21T07:22:11.110Z,63.83
2023-05-21T07:24:37.469Z,63.68
2023-05-21T07:27:11.338Z,63.05
2023-05-21T07:29:44.478Z,63.52
2023-05-21T07:32:10.856Z,63.18
2023-05-21T07:34:37.243Z,63.19
2023-05-21T07:37:03.604Z,63.17
2023-05-21T07:39:29.950Z,63.13
2023-05-21T07:41:56.315Z,62.58
2023-05-21T07:44:22.663Z,61.72
2023-05-21T07:46:49.044Z,61.72
2023-05-21T07:49:15.446Z,62.00
2023-05-21T07:51:41.833Z,61.67
2023-05-21T07:54:08.226Z,61.54
2023-05-21T07:56:34.600Z,61.20
2023-05-21T07:59:00.958Z,61.47
2023-05-21T08:01:27.333Z,61.46
2023-05-21T08:03:53.840Z,61.24
2023-05-21T08:06:20.372Z,61.98
2023-05-21T08:08:46.758Z,61.81
2023-05-21T08:11:14.302Z,62.09
2023-05-21T08:13:40.677Z,62.26
2023-05-21T08:16:07.094Z,61.84
2023-05-21T08:18:33.509Z,62.34
2023-05-21T08:20:59.885Z,62.21
2023-05-21T08:23:26.269Z,61.32
2023-05-21T08:25:52.669Z,61.11
2023-05-21T08:28:19.084Z,61.16
2023-05-21T08:30:45.468Z,60.58
2023-05-21T08:33:11.890Z,60.36
2023-05-21T08:35:38.567Z,60.22
2023-05-21T08:38:05.196Z,59.38
2023-05-21T08:40:31.578Z,59.43
2023-05-21T08:42:57.948Z,59.01
2023-05-21T08:45:24.354Z,58.53
2023-05-21T08:47:50.833Z,58.37
2023-05-21T08:50:17.216Z,58.40
2023-05-21T08:52:43.633Z,58.45
2023-05-21T08:55:10.025Z,57.89
2023-05-21T08:57:36.404Z,58.28
2023-05-21T09:00:02.814Z,58.24
2023-05-21T09:02:29.210Z,58.34
2023-05-21T09:04:55.566Z,57.25
2023-05-21T09:07:21.932Z,56.56
2023-05-21T09:09:48.310Z,57.06
2023-05-21T09:12:14.677Z,56.50
2023-05-21T09:14:41.069Z,56.73
2023-05-21T09:17:07.592Z,56.49
2023-05-21T09:19:34.094Z,55.83
2023-05-21T09:22:00.478Z,56.72
2023-05-21T09:24:26.871Z,56.27
2023-05-21T09:26:53.236Z,56.04
2023-05-21T09:29:19.594Z,56.66
2023-05-21T09:31:46.059Z,55.31
2023-05-21T09:34:12.471Z,55.36
2023-05-21T09:36:38.868Z,54.98
2023-05-21T09:39:05.243Z,55.09
2023-05-21T09:41:31.638Z,54.11
2023-05-21T09:43:58.015Z,54.23
2023-05-21T09:46:24.421Z,54.19
2023-05-21T09:48:50.855Z,55.50
2023-05-21T09:51:17.226Z,53.60
2023-05-21T09:53:43.615Z,53.51
2023-05-21T09:56:10.133Z,53.08
2023-05-21T09:58:36.531Z,53.75
2023-05-21T10:01:02.917Z,52.72
2023-05-21T10:03:29.329Z,52.32
2023-05-21T10:05:55.721Z,52.72
2023-05-21T10:08:22.114Z,53.05
2023-05-21T10:10:48.504Z,51.58
2023-05-21T10:13:14.906Z,50.28
2023-05-21T10:15:41.273Z,51.37
2023-05-21T10:18:07.672Z,50.77
2023-05-21T10:20:34.157Z,50.20
2023-05-21T10:23:00.663Z,51.00
2023-05-21T10:25:27.035Z,50.32
2023-05-21T10:27:53.405Z,50.31
2023-05-21T10:30:19.795Z,50.21
2023-05-21T10:32:46.328Z,49.61
2023-05-21T10:35:12.820Z,49.06
2023-05-21T10:37:39.182Z,50.26
2023-05-21T10:40:05.566Z,48.11
2023-05-21T10:42:31.968Z,49.25
2023-05-21T10:44:58.385Z,48.71
2023-05-21T10:47:24.737Z,49.10
2023-05-21T10:49:51.125Z,48.34
2023-05-21T10:52:17.532Z,46.99
2023-05-21T10:54:43.901Z,45.97
2023-05-21T10:57:10.276Z,46.33
2023-05-21T10:59:36.643Z,45.70
2023-05-21T11:02:03.052Z,45.61
2023-05-21T11:04:29.441Z,46.96
2023-05-21T11:06:55.813Z,45.95
2023-05-21T11:09:22.193Z,46.47
2023-05-21T11:11:48.669Z,46.05
2023-05-21T11:14:15.132Z,46.64
2023-05-21T11:16:41.526Z,46.00
2023-05-21T11:19:07.987Z,45.64
2023-05-21T11:21:34.430Z,45.19
2023-05-21T11:24:00.811Z,46.97
2023-05-21T11:26:27.213Z,46.31
2023-05-21T11:28:53.585Z,46.83
2023-05-21T11:31:19.952Z,47.44
2023-05-21T11:33:46.318Z,46.30
2023-05-21T11:36:12.688Z,47.11
2023-05-21T11:38:39.054Z,45.00
2023-05-21T11:41:05.456Z,45.41
2023-05-21T11:43:31.810Z,46.08
2023-05-21T11:45:58.220Z,45.98
2023-05-21T11:48:27.286Z,44.76
2023-05-21T11:50:54.411Z,42.65
2023-05-21T11:53:20.750Z,43.44
2023-05-21T11:55:47.111Z,41.36
2023-05-21T11:58:13.481Z,44.96
2023-05-21T12:00:39.851Z,42.60
2023-05-21T12:03:06.367Z,44.59
2023-05-21T12:05:32.843Z,41.48
2023-05-21T12:07:59.209Z,43.35
2023-05-21T12:10:25.567Z,40.66
2023-05-21T12:12:56.468Z,39.47
2023-05-21T12:15:23.533Z,39.50
2023-05-21T12:17:50.020Z,35.81
2023-05-21T12:20:16.474Z,35.06
2023-05-21T12:22:42.910Z,36.93
2023-05-21T12:25:09.278Z,36.54
2023-05-21T12:27:35.653Z,35.95
2023-05-21T12:30:01.993Z,36.10
2023-05-21T12:32:28.388Z,37.31
2023-05-21T12:34:54.896Z,39.06
2023-05-21T12:37:21.305Z,38.43
2023-05-21T12:39:47.673Z,36.65
2023-05-21T12:42:14.043Z,39.14
2023-05-21T12:44:40.390Z,35.30
2023-05-21T12:47:06.773Z,35.99
2023-05-21T12:49:33.119Z,38.51
2023-05-21T12:51:59.464Z,37.50
2023-05-21T12:54:25.972Z,37.24
2023-05-21T12:56:52.352Z,35.48
2023-05-21T12:59:18.739Z,38.17
2023-05-21T13:01:45.136Z,40.07
2023-05-21T13:04:11.543Z,39.65
2023-05-21T13:06:38.022Z,38.17
2023-05-21T13:09:04.390Z,38.09
2023-05-21T13:11:30.764Z,39.41
2023-05-21T13:13:57.113Z,38.88
2023-05-21T13:16:23.647Z,37.03
2023-05-21T13:18:50.146Z,37.79
2023-05-21T13:21:16.521Z,36.27
2023-05-21T13:23:42.875Z,36.64
2023-05-21T13:26:09.251Z,37.99
2023-05-21T13:28:35.631Z,34.17
2023-05-21T13:31:02.003Z,34.74
2023-05-21T13:33:28.628Z,35.83
2023-05-21T13:35:55.143Z,33.27
2023-05-21T13:38:21.499Z,32.33
2023-05-21T13:40:47.856Z,34.20
2023-05-21T13:43:14.228Z,32.19
2023-05-21T13:45:40.573Z,30.54
2023-05-21T13:48:06.980Z,32.03
2023-05-21T13:50:33.389Z,30.82
2023-05-21T13:52:59.758Z,31.62
2023-05-21T13:55:29.198Z,32.94
2023-05-21T13:57:55.579Z,33.14
2023-05-21T14:00:21.954Z,33.32
2023-05-21T14:02:48.413Z,33.62
2023-05-21T14:05:14.937Z,31.10
2023-05-21T14:07:41.298Z,30.80
2023-05-21T14:10:07.659Z,30.32
2023-05-21T14:12:34.027Z,31.12
2023-05-21T14:15:00.386Z,37.64
2023-05-21T14:17:26.852Z,40.79
2023-05-21T14:19:53.231Z,40.75
2023-05-21T14:22:19.601Z,41.17
2023-05-21T14:24:45.947Z,41.62
2023-05-21T14:27:14.574Z,40.28
2023-05-21T14:29:41.673Z,40.26
2023-05-21T14:32:08.077Z,41.59
2023-05-21T14:34:34.453Z,40.70
2023-05-21T14:37:00.806Z,33.64
2023-05-21T14:39:27.190Z,31.90
2023-05-21T14:41:53.536Z,32.08
2023-05-21T14:44:19.879Z,34.22
2023-05-21T14:46:46.236Z,30.81
2023-05-21T14:49:12.591Z,32.04
2023-05-21T14:51:38.959Z,32.19
2023-05-21T14:54:05.313Z,31.87
2023-05-21T14:56:31.695Z,32.83
2023-05-21T14:58:58.057Z,32.78
2023-05-21T15:01:24.445Z,34.39
2023-05-21T15:03:51.076Z,32.83
2023-05-21T15:06:17.775Z,33.89
2023-05-21T15:08:44.151Z,33.92
2023-05-21T15:11:10.518Z,34.00
2023-05-21T15:13:36.875Z,35.11
2023-05-21T15:16:03.282Z,32.12
2023-05-21T15:18:29.736Z,32.03
2023-05-21T15:20:56.122Z,32.48
2023-05-21T15:23:22.477Z,33.36
2023-05-21T15:25:53.980Z,32.74
2023-05-21T15:28:20.325Z,33.23
2023-05-21T15:30:46.670Z,30.75
2023-05-21T15:33:13.070Z,33.06
2023-05-21T15:35:39.892Z,33.35
2023-05-21T15:38:06.452Z,34.06
2023-05-21T15:40:32.856Z,31.74
2023-05-21T15:42:59.269Z,33.76
2023-05-21T15:45:25.666Z,31.05
2023-05-21T15:47:52.124Z,35.44
2023-05-21T15:50:18.498Z,37.83
2023-05-21T15:52:44.893Z,38.57
2023-05-21T15:55:11.246Z,37.79
2023-05-21T15:57:37.617Z,38.45
2023-05-21T16:00:03.998Z,38.10
2023-05-21T16:02:30.387Z,37.25
2023-05-21T16:04:56.771Z,38.90
2023-05-21T16:07:23.128Z,38.45
2023-05-21T16:09:49.469Z,37.49
2023-05-21T16:12:15.839Z,36.65
2023-05-21T16:14:42.216Z,37.88
2023-05-21T16:17:08.636Z,37.63
2023-05-21T16:19:35.119Z,37.68
2023-05-21T16:22:01.577Z,37.84
2023-05-21T16:24:27.927Z,38.95
2023-05-21T16:26:54.269Z,39.17
2023-05-21T16:29:22.164Z,39.39
2023-05-21T16:31:48.680Z,39.35
2023-05-21T16:34:15.068Z,41.22
2023-05-21T16:36:41.470Z,41.03
2023-05-21T16:39:07.852Z,39.92
2023-05-21T16:41:34.232Z,40.13
2023-05-21T16:44:00.618Z,41.27
2023-05-21T16:46:27.096Z,40.99
2023-05-21T16:48:53.444Z,40.84
2023-05-21T16:51:19.812Z,40.92
2023-05-21T16:53:46.154Z,41.22
2023-05-21T16:56:12.506Z,41.68
2023-05-21T16:58:38.874Z,42.26
2023-05-21T17:01:05.256Z,42.73
2023-05-21T17:03:31.809Z,43.99
2023-05-21T17:05:58.273Z,44.22
2023-05-21T17:08:24.670Z,44.42
2023-05-21T17:10:51.025Z,44.50
2023-05-21T17:13:22.020Z,43.82
2023-05-21T17:15:48.839Z,43.54
2023-05-21T17:18:15.236Z,42.81
2023-05-21T17:20:41.754Z,43.20
2023-05-21T17:23:08.156Z,43.04
2023-05-21T17:25:34.824Z,43.55
2023-05-21T17:28:01.375Z,43.16
2023-05-21T17:30:27.744Z,42.46
2023-05-21T17:32:54.117Z,41.81
2023-05-21T17:35:20.489Z,42.73
2023-05-21T17:37:46.900Z,42.78
2023-05-21T17:40:13.285Z,43.22
2023-05-21T17:42:39.669Z,42.95
2023-05-21T17:45:06.066Z,41.66
2023-05-21T17:47:32.446Z,41.25
2023-05-21T17:49:58.851Z,42.00
2023-05-21T17:52:25.197Z,42.48
2023-05-21T17:54:51.566Z,42.98
2023-05-21T17:57:17.958Z,42.32
2023-05-21T17:59:44.329Z,43.92
2023-05-21T18:02:10.709Z,43.48
2023-05-21T18:04:37.112Z,43.70
2023-05-21T18:07:03.512Z,43.90
2023-05-21T18:09:29.889Z,43.78
2023-05-21T18:11:56.268Z,43.72
2023-05-21T18:14:22.635Z,43.86
2023-05-21T18:16:49.049Z,44.17
2023-05-21T18:19:15.486Z,43.87
2023-05-21T18:21:41.902Z,44.42
2023-05-21T18:24:08.276Z,44.50
2023-05-21T18:26:34.657Z,44.88
2023-05-21T18:29:01.059Z,44.93
2023-05-21T18:31:27.545Z,45.54
2023-05-21T18:33:53.949Z,46.11
2023-05-21T18:36:20.314Z,46.58
2023-05-21T18:38:46.657Z,47.36
2023-05-21T18:41:13.044Z,46.84
2023-05-21T18:43:39.412Z,46.82
2023-05-21T18:46:05.837Z,47.00
2023-05-21T18:48:32.241Z,47.15
2023-05-21T18:50:58.597Z,47.47
2023-05-21T18:53:24.974Z,48.64
2023-05-21T18:55:51.332Z,48.71
2023-05-21T18:58:17.729Z,47.80
2023-05-21T19:00:44.096Z,47.91
2023-05-21T19:03:10.505Z,48.61
2023-05-21T19:05:36.962Z,48.01
2023-05-21T19:08:03.366Z,48.12
2023-05-21T19:10:29.717Z,47.92
2023-05-21T19:12:56.069Z,48.28
2023-05-21T19:15:22.428Z,48.19
2023-05-21T19:17:48.895Z,48.45
2023-05-21T19:20:15.331Z,48.49
2023-05-21T19:22:41.709Z,49.36
2023-05-21T19:25:08.063Z,50.06
2023-05-21T19:27:34.501Z,50.46
2023-05-21T19:30:00.891Z,50.81
2023-05-21T19:32:27.273Z,51.26
2023-05-21T19:34:53.635Z,52.57
2023-05-21T19:37:20.079Z,53.43
2023-05-21T19:39:46.462Z,53.67
2023-05-21T19:42:12.858Z,54.00
2023-05-21T19:44:39.233Z,54.23
2023-05-21T19:47:05.605Z,53.96
2023-05-21T19:49:31.973Z,53.99
2023-05-21T19:51:58.359Z,53.60
2023-05-21T19:54:24.710Z,53.67
2023-05-21T19:56:51.088Z,54.22
2023-05-21T19:59:17.487Z,52.42
2023-05-21T20:01:43.929Z,53.24
2023-05-21T20:04:10.416Z,53.20
2023-05-21T20:06:36.800Z,54.47
2023-05-21T20:09:03.184Z,55.53
2023-05-21T20:11:29.584Z,55.34
2023-05-21T20:13:55.954Z,56.38
2023-05-21T20:16:22.348Z,55.93
2023-05-21T20:18:48.769Z,55.60
2023-05-21T20:21:15.226Z,55.55
2023-05-21T20:23:41.627Z,55.41
2023-05-21T20:26:07.986Z,55.22
2023-05-21T20:28:34.346Z,54.87
2023-05-21T20:31:00.724Z,55.16
2023-05-21T20:33:27.125Z,55.54
2023-05-21T20:35:53.476Z,55.86
2023-05-21T20:38:19.829Z,55.71
2023-05-21T20:40:46.205Z,55.24
2023-05-21T20:43:12.555Z,54.35
2023-05-21T20:45:38.914Z,54.52
2023-05-21T20:48:05.311Z,54.63
2023-05-21T20:50:31.758Z,54.97
2023-05-21T20:52:58.144Z,54.32
2023-05-21T20:55:24.560Z,54.22
2023-05-21T20:57:50.962Z,54.81
2023-05-21T21:00:17.316Z,54.74
2023-05-21T21:02:43.761Z,54.67
2023-05-21T21:05:10.693Z,54.67
2023-05-21T21:07:37.134Z,54.67
2023-05-21T21:10:03.493Z,54.74
2023-05-21T21:12:29.868Z,54.71
2023-05-21T21:14:56.230Z,54.69
2023-05-21T21:17:22.604Z,54.83
2023-05-21T21:19:48.999Z,55.27
2023-05-21T21:22:15.364Z,55.12
2023-05-21T21:24:41.741Z,55.31
2023-05-21T21:27:08.132Z,55.50
2023-05-21T21:29:34.500Z,55.36
2023-05-21T21:32:00.868Z,55.07
2023-05-21T21:34:27.248Z,55.06
2023-05-21T21:36:53.617Z,54.58
2023-05-21T21:39:19.976Z,54.65
2023-05-21T21:41:46.342Z,54.93
2023-05-21T21:44:12.705Z,55.36
2023-05-21T21:46:39.104Z,55.63
2023-05-21T21:49:05.466Z,56.12
2023-05-21T21:51:31.831Z,56.46
2023-05-21T21:53:58.194Z,56.86
2023-05-21T21:56:24.546Z,57.03
2023-05-21T21:58:50.928Z,57.02
2023-05-21T22:01:17.625Z,56.94
2023-05-21T22:03:44.024Z,57.48
2023-05-21T22:06:10.385Z,57.41
2023-05-21T22:08:36.761Z,57.79
2023-05-21T22:11:03.144Z,57.72
2023-05-21T22:13:30.086Z,58.02
2023-05-21T22:15:56.540Z,58.24
2023-05-21T22:18:36.002Z,58.20
2023-05-21T22:21:06.391Z,57.98
2023-05-21T22:23:32.749Z,58.13
2023-05-21T22:25:59.096Z,58.18
2023-05-21T22:28:25.461Z,58.29
2023-05-21T22:30:51.834Z,58.49
2023-05-21T22:33:18.244Z,58.27
2023-05-21T22:35:44.623Z,58.33
2023-05-21T22:38:10.973Z,58.23
2023-05-21T22:40:37.607Z,57.84
2023-05-21T22:43:04.129Z,58.66
2023-05-21T22:45:30.519Z,58.78
2023-05-21T22:47:56.918Z,58.45
2023-05-21T22:50:23.303Z,59.14
2023-05-21T22:52:49.681Z,59.02
2023-05-21T22:55:16.063Z,58.91
2023-05-21T22:57:42.426Z,59.16
2023-05-21T23:00:08.800Z,58.52
2023-05-21T23:02:35.166Z,58.85
2023-05-21T23:05:01.722Z,58.64
2023-05-21T23:07:28.134Z,58.48
2023-05-21T23:09:54.505Z,59.03
2023-05-21T23:12:20.850Z,59.43
2023-05-21T23:14:47.229Z,59.21
2023-05-21T23:17:13.593Z,58.91
2023-05-21T23:19:39.942Z,59.02
2023-05-21T23:22:06.333Z,59.02
2023-05-21T23:24:32.699Z,58.81
2023-05-21T23:26:59.050Z,58.73
2023-05-21T23:29:25.403Z,59.15
2023-05-21T23:31:51.777Z,59.44
2023-05-21T23:34:18.199Z,59.52
2023-05-21T23:36:44.598Z,59.47
2023-05-21T23:39:10.960Z,59.33
2023-05-21T23:41:37.334Z,59.97
2023-05-21T23:44:03.795Z,60.25
2023-05-21T23:46:30.184Z,60.01
2023-05-21T23:48:59.427Z,60.13
2023-05-21T23:51:25.806Z,60.25
2023-05-21T23:53:52.163Z,60.04
2023-05-21T23:56:18.549Z,59.81
2023-05-21T23:58:44.922Z,59.91
